sensor_id;sensor_type;location;lat;lon;timestamp;P1;durP1;ratioP1;P2;durP2;ratioP2
76863;SDS011;65834;52.364;9.754;2024-02-16T00:00:28;5.35;;;1.90;;
76863;SDS011;65834;52.364;9.754;2024-02-16T00:02:57;6.47;;;1.95;;
76863;SDS011;65834;52.364;9.754;2024-02-16T00:05:27;5.93;;;1.85;;
76863;SDS011;65834;52.364;9.754;2024-02-16T00:07:57;5.63;;;2.05;;
76863;SDS011;65834;52.364;9.754;2024-02-16T00:10:28;6.77;;;1.83;;
76863;SDS011;65834;52.364;9.754;2024-02-16T00:13:01;9.18;;;3.22;;
76863;SDS011;65834;52.364;9.754;2024-02-16T00:15:31;7.57;;;2.40;;
76863;SDS011;65834;52.364;9.754;2024-02-16T00:18:01;6.45;;;2.30;;
76863;SDS011;65834;52.364;9.754;2024-02-16T00:20:31;7.38;;;2.60;;
76863;SDS011;65834;52.364;9.754;2024-02-16T00:23:01;5.65;;;1.77;;
76863;SDS011;65834;52.364;9.754;2024-02-16T00:25:30;7.88;;;2.20;;
76863;SDS011;65834;52.364;9.754;2024-02-16T00:28:03;4.68;;;1.90;;
76863;SDS011;65834;52.364;9.754;2024-02-16T00:33:03;8.85;;;2.13;;
76863;SDS011;65834;52.364;9.754;2024-02-16T00:35:34;5.68;;;2.05;;
76863;SDS011;65834;52.364;9.754;2024-02-16T00:38:03;5.78;;;1.75;;
76863;SDS011;65834;52.364;9.754;2024-02-16T00:40:33;5.95;;;1.95;;
76863;SDS011;65834;52.364;9.754;2024-02-16T00:43:06;5.30;;;2.00;;
76863;SDS011;65834;52.364;9.754;2024-02-16T00:45:36;8.02;;;2.38;;
76863;SDS011;65834;52.364;9.754;2024-02-16T00:48:07;6.32;;;2.55;;
76863;SDS011;65834;52.364;9.754;2024-02-16T00:50:37;5.97;;;1.90;;
76863;SDS011;65834;52.364;9.754;2024-02-16T00:53:10;7.93;;;2.17;;
76863;SDS011;65834;52.364;9.754;2024-02-16T00:55:39;4.50;;;1.90;;
76863;SDS011;65834;52.364;9.754;2024-02-16T00:58:14;5.15;;;1.90;;
76863;SDS011;65834;52.364;9.754;2024-02-16T01:00:46;8.40;;;2.35;;
76863;SDS011;65834;52.364;9.754;2024-02-16T01:03:15;7.78;;;2.33;;
76863;SDS011;65834;52.364;9.754;2024-02-16T01:05:45;5.60;;;2.03;;
76863;SDS011;65834;52.364;9.754;2024-02-16T01:08:14;5.45;;;2.10;;
76863;SDS011;65834;52.364;9.754;2024-02-16T01:10:44;7.65;;;2.40;;
76863;SDS011;65834;52.364;9.754;2024-02-16T01:13:16;5.93;;;2.00;;
76863;SDS011;65834;52.364;9.754;2024-02-16T01:15:45;5.88;;;2.00;;
76863;SDS011;65834;52.364;9.754;2024-02-16T01:18:15;7.35;;;2.03;;
76863;SDS011;65834;52.364;9.754;2024-02-16T01:20:45;6.25;;;2.00;;
76863;SDS011;65834;52.364;9.754;2024-02-16T01:23:15;7.32;;;2.00;;
76863;SDS011;65834;52.364;9.754;2024-02-16T01:25:44;6.88;;;2.00;;
76863;SDS011;65834;52.364;9.754;2024-02-16T01:28:17;6.22;;;2.30;;
76863;SDS011;65834;52.364;9.754;2024-02-16T01:30:46;6.60;;;2.30;;
76863;SDS011;65834;52.364;9.754;2024-02-16T01:33:16;6.25;;;1.85;;
76863;SDS011;65834;52.364;9.754;2024-02-16T01:35:46;6.57;;;2.35;;
76863;SDS011;65834;52.364;9.754;2024-02-16T01:38:15;6.50;;;2.55;;
76863;SDS011;65834;52.364;9.754;2024-02-16T01:40:45;4.43;;;1.67;;
76863;SDS011;65834;52.364;9.754;2024-02-16T01:43:20;7.47;;;2.20;;
76863;SDS011;65834;52.364;9.754;2024-02-16T01:45:50;8.73;;;2.03;;
76863;SDS011;65834;52.364;9.754;2024-02-16T01:48:20;5.45;;;2.42;;
76863;SDS011;65834;52.364;9.754;2024-02-16T01:50:50;5.88;;;2.00;;
76863;SDS011;65834;52.364;9.754;2024-02-16T01:53:20;6.55;;;1.92;;
76863;SDS011;65834;52.364;9.754;2024-02-16T01:55:51;7.18;;;2.70;;
76863;SDS011;65834;52.364;9.754;2024-02-16T01:58:23;8.57;;;2.55;;
76863;SDS011;65834;52.364;9.754;2024-02-16T02:00:53;6.93;;;1.98;;
76863;SDS011;65834;52.364;9.754;2024-02-16T02:03:23;6.30;;;2.20;;
76863;SDS011;65834;52.364;9.754;2024-02-16T02:05:52;7.65;;;2.08;;
76863;SDS011;65834;52.364;9.754;2024-02-16T02:08:23;6.93;;;2.40;;
76863;SDS011;65834;52.364;9.754;2024-02-16T02:10:54;4.63;;;1.90;;
76863;SDS011;65834;52.364;9.754;2024-02-16T02:13:27;5.57;;;1.80;;
76863;SDS011;65834;52.364;9.754;2024-02-16T02:15:56;4.97;;;1.95;;
76863;SDS011;65834;52.364;9.754;2024-02-16T02:18:27;5.10;;;1.95;;
76863;SDS011;65834;52.364;9.754;2024-02-16T02:20:54;5.13;;;1.88;;
76863;SDS011;65834;52.364;9.754;2024-02-16T02:23:27;6.88;;;1.90;;
76863;SDS011;65834;52.364;9.754;2024-02-16T02:25:56;5.82;;;1.85;;
76863;SDS011;65834;52.364;9.754;2024-02-16T02:28:26;5.85;;;2.10;;
76863;SDS011;65834;52.364;9.754;2024-02-16T02:30:55;5.63;;;1.55;;
76863;SDS011;65834;52.364;9.754;2024-02-16T02:33:29;7.05;;;2.03;;
76863;SDS011;65834;52.364;9.754;2024-02-16T02:35:59;5.72;;;2.15;;
76863;SDS011;65834;52.364;9.754;2024-02-16T02:38:32;6.25;;;1.90;;
76863;SDS011;65834;52.364;9.754;2024-02-16T02:41:01;4.75;;;1.70;;
76863;SDS011;65834;52.364;9.754;2024-02-16T02:43:33;8.27;;;2.60;;
76863;SDS011;65834;52.364;9.754;2024-02-16T02:46:03;5.00;;;1.80;;
76863;SDS011;65834;52.364;9.754;2024-02-16T02:48:33;6.75;;;1.80;;
76863;SDS011;65834;52.364;9.754;2024-02-16T02:51:02;3.80;;;1.70;;
76863;SDS011;65834;52.364;9.754;2024-02-16T02:53:35;3.85;;;1.65;;
76863;SDS011;65834;52.364;9.754;2024-02-16T02:56:05;4.57;;;1.70;;
76863;SDS011;65834;52.364;9.754;2024-02-16T02:58:35;5.22;;;1.70;;
76863;SDS011;65834;52.364;9.754;2024-02-16T03:01:05;5.70;;;1.83;;
76863;SDS011;65834;52.364;9.754;2024-02-16T03:03:35;6.45;;;1.90;;
76863;SDS011;65834;52.364;9.754;2024-02-16T03:06:05;5.68;;;1.73;;
76863;SDS011;65834;52.364;9.754;2024-02-16T03:08:37;5.63;;;1.80;;
76863;SDS011;65834;52.364;9.754;2024-02-16T03:11:07;5.63;;;1.85;;
76863;SDS011;65834;52.364;9.754;2024-02-16T03:13:37;6.10;;;1.95;;
76863;SDS011;65834;52.364;9.754;2024-02-16T03:16:07;5.35;;;1.80;;
76863;SDS011;65834;52.364;9.754;2024-02-16T03:18:36;6.15;;;1.80;;
76863;SDS011;65834;52.364;9.754;2024-02-16T03:21:06;4.18;;;1.70;;
76863;SDS011;65834;52.364;9.754;2024-02-16T03:23:38;6.00;;;2.03;;
76863;SDS011;65834;52.364;9.754;2024-02-16T03:26:13;5.18;;;1.90;;
76863;SDS011;65834;52.364;9.754;2024-02-16T03:28:43;5.88;;;1.67;;
76863;SDS011;65834;52.364;9.754;2024-02-16T03:31:16;3.42;;;1.55;;
76863;SDS011;65834;52.364;9.754;2024-02-16T03:33:46;7.80;;;1.77;;
76863;SDS011;65834;52.364;9.754;2024-02-16T03:36:17;6.22;;;1.73;;
76863;SDS011;65834;52.364;9.754;2024-02-16T03:38:50;3.20;;;1.75;;
76863;SDS011;65834;52.364;9.754;2024-02-16T03:41:20;6.10;;;1.85;;
76863;SDS011;65834;52.364;9.754;2024-02-16T03:43:50;7.60;;;2.40;;
76863;SDS011;65834;52.364;9.754;2024-02-16T03:46:20;4.88;;;1.55;;
76863;SDS011;65834;52.364;9.754;2024-02-16T03:48:50;5.80;;;2.05;;
76863;SDS011;65834;52.364;9.754;2024-02-16T03:51:20;5.68;;;2.10;;
76863;SDS011;65834;52.364;9.754;2024-02-16T03:53:53;6.35;;;1.88;;
76863;SDS011;65834;52.364;9.754;2024-02-16T03:56:23;4.57;;;1.77;;
76863;SDS011;65834;52.364;9.754;2024-02-16T03:58:53;5.32;;;1.77;;
76863;SDS011;65834;52.364;9.754;2024-02-16T04:01:22;5.85;;;1.88;;
76863;SDS011;65834;52.364;9.754;2024-02-16T04:03:52;7.28;;;2.13;;
76863;SDS011;65834;52.364;9.754;2024-02-16T04:06:22;6.88;;;1.80;;
76863;SDS011;65834;52.364;9.754;2024-02-16T04:08:54;6.50;;;1.90;;
76863;SDS011;65834;52.364;9.754;2024-02-16T04:11:24;5.47;;;1.70;;
76863;SDS011;65834;52.364;9.754;2024-02-16T04:13:56;5.53;;;1.60;;
76863;SDS011;65834;52.364;9.754;2024-02-16T04:16:25;8.32;;;2.05;;
76863;SDS011;65834;52.364;9.754;2024-02-16T04:18:55;5.43;;;1.85;;
76863;SDS011;65834;52.364;9.754;2024-02-16T04:21:25;4.65;;;1.63;;
76863;SDS011;65834;52.364;9.754;2024-02-16T04:23:57;3.70;;;1.50;;
76863;SDS011;65834;52.364;9.754;2024-02-16T04:26:28;5.55;;;1.75;;
76863;SDS011;65834;52.364;9.754;2024-02-16T04:28:58;6.13;;;1.70;;
76863;SDS011;65834;52.364;9.754;2024-02-16T04:31:28;5.05;;;1.60;;
76863;SDS011;65834;52.364;9.754;2024-02-16T04:33:58;6.25;;;1.75;;
76863;SDS011;65834;52.364;9.754;2024-02-16T04:36:28;5.78;;;1.75;;
76863;SDS011;65834;52.364;9.754;2024-02-16T04:39:00;5.22;;;1.70;;
76863;SDS011;65834;52.364;9.754;2024-02-16T04:41:30;6.75;;;1.50;;
76863;SDS011;65834;52.364;9.754;2024-02-16T04:43:59;5.32;;;1.75;;
76863;SDS011;65834;52.364;9.754;2024-02-16T04:46:29;6.95;;;1.88;;
76863;SDS011;65834;52.364;9.754;2024-02-16T04:48:59;6.05;;;1.88;;
76863;SDS011;65834;52.364;9.754;2024-02-16T04:51:29;5.68;;;1.80;;
76863;SDS011;65834;52.364;9.754;2024-02-16T04:54:01;8.20;;;1.90;;
76863;SDS011;65834;52.364;9.754;2024-02-16T04:56:32;6.20;;;1.83;;
76863;SDS011;65834;52.364;9.754;2024-02-16T04:59:02;4.43;;;1.50;;
76863;SDS011;65834;52.364;9.754;2024-02-16T05:01:31;5.93;;;1.60;;
76863;SDS011;65834;52.364;9.754;2024-02-16T05:04:01;6.60;;;1.75;;
76863;SDS011;65834;52.364;9.754;2024-02-16T05:06:31;5.32;;;1.80;;
76863;SDS011;65834;52.364;9.754;2024-02-16T05:09:03;3.13;;;1.10;;
76863;SDS011;65834;52.364;9.754;2024-02-16T05:11:33;4.03;;;1.60;;
76863;SDS011;65834;52.364;9.754;2024-02-16T05:14:02;4.80;;;2.10;;
76863;SDS011;65834;52.364;9.754;2024-02-16T05:16:32;4.28;;;1.73;;
76863;SDS011;65834;52.364;9.754;2024-02-16T05:19:03;5.90;;;1.70;;
76863;SDS011;65834;52.364;9.754;2024-02-16T05:21:32;4.95;;;1.67;;
76863;SDS011;65834;52.364;9.754;2024-02-16T05:24:05;4.72;;;1.88;;
76863;SDS011;65834;52.364;9.754;2024-02-16T05:26:36;5.82;;;2.03;;
76863;SDS011;65834;52.364;9.754;2024-02-16T05:29:05;4.65;;;1.75;;
76863;SDS011;65834;52.364;9.754;2024-02-16T05:31:35;7.10;;;2.10;;
76863;SDS011;65834;52.364;9.754;2024-02-16T05:34:05;5.95;;;1.70;;
76863;SDS011;65834;52.364;9.754;2024-02-16T05:36:34;4.93;;;1.60;;
76863;SDS011;65834;52.364;9.754;2024-02-16T05:39:07;4.13;;;1.65;;
76863;SDS011;65834;52.364;9.754;2024-02-16T05:41:48;5.13;;;1.73;;
76863;SDS011;65834;52.364;9.754;2024-02-16T05:44:17;4.90;;;1.70;;
76863;SDS011;65834;52.364;9.754;2024-02-16T05:46:50;4.57;;;1.65;;
76863;SDS011;65834;52.364;9.754;2024-02-16T05:49:19;5.53;;;1.58;;
76863;SDS011;65834;52.364;9.754;2024-02-16T05:51:51;3.35;;;1.80;;
76863;SDS011;65834;52.364;9.754;2024-02-16T05:54:45;5.28;;;2.05;;
76863;SDS011;65834;52.364;9.754;2024-02-16T05:57:16;6.05;;;1.92;;
76863;SDS011;65834;52.364;9.754;2024-02-16T05:59:46;5.47;;;2.47;;
76863;SDS011;65834;52.364;9.754;2024-02-16T06:02:18;5.10;;;1.73;;
76863;SDS011;65834;52.364;9.754;2024-02-16T06:04:48;5.05;;;1.70;;
76863;SDS011;65834;52.364;9.754;2024-02-16T06:07:17;6.72;;;1.90;;
76863;SDS011;65834;52.364;9.754;2024-02-16T06:09:50;5.03;;;1.63;;
76863;SDS011;65834;52.364;9.754;2024-02-16T06:14:49;3.17;;;1.50;;
76863;SDS011;65834;52.364;9.754;2024-02-16T06:17:20;5.53;;;1.83;;
76863;SDS011;65834;52.364;9.754;2024-02-16T06:19:50;3.17;;;1.50;;
76863;SDS011;65834;52.364;9.754;2024-02-16T06:22:19;3.50;;;1.35;;
76863;SDS011;65834;52.364;9.754;2024-02-16T06:24:52;4.28;;;1.88;;
76863;SDS011;65834;52.364;9.754;2024-02-16T06:27:21;7.28;;;2.03;;
76863;SDS011;65834;52.364;9.754;2024-02-16T06:29:51;4.28;;;1.70;;
76863;SDS011;65834;52.364;9.754;2024-02-16T06:32:20;4.07;;;1.88;;
76863;SDS011;65834;52.364;9.754;2024-02-16T06:34:51;6.15;;;2.28;;
76863;SDS011;65834;52.364;9.754;2024-02-16T06:37:21;7.10;;;2.00;;
76863;SDS011;65834;52.364;9.754;2024-02-16T06:39:53;4.60;;;2.08;;
76863;SDS011;65834;52.364;9.754;2024-02-16T06:42:23;5.13;;;1.70;;
76863;SDS011;65834;52.364;9.754;2024-02-16T06:44:53;5.68;;;1.98;;
76863;SDS011;65834;52.364;9.754;2024-02-16T06:47:22;6.03;;;1.70;;
76863;SDS011;65834;52.364;9.754;2024-02-16T06:49:52;3.97;;;1.50;;
76863;SDS011;65834;52.364;9.754;2024-02-16T06:52:22;5.53;;;1.60;;
76863;SDS011;65834;52.364;9.754;2024-02-16T06:54:54;4.95;;;1.60;;
76863;SDS011;65834;52.364;9.754;2024-02-16T06:57:24;5.82;;;2.17;;
76863;SDS011;65834;52.364;9.754;2024-02-16T06:59:54;6.13;;;2.20;;
76863;SDS011;65834;52.364;9.754;2024-02-16T07:02:24;5.25;;;1.70;;
76863;SDS011;65834;52.364;9.754;2024-02-16T07:04:54;4.45;;;1.67;;
76863;SDS011;65834;52.364;9.754;2024-02-16T07:07:23;6.07;;;1.70;;
76863;SDS011;65834;52.364;9.754;2024-02-16T07:09:56;6.45;;;1.90;;
76863;SDS011;65834;52.364;9.754;2024-02-16T07:12:29;4.97;;;2.00;;
76863;SDS011;65834;52.364;9.754;2024-02-16T07:15:00;5.55;;;1.73;;
76863;SDS011;65834;52.364;9.754;2024-02-16T07:17:35;7.35;;;2.03;;
76863;SDS011;65834;52.364;9.754;2024-02-16T07:20:05;4.13;;;1.63;;
76863;SDS011;65834;52.364;9.754;2024-02-16T07:22:36;5.43;;;1.90;;
76863;SDS011;65834;52.364;9.754;2024-02-16T07:25:08;5.70;;;2.08;;
76863;SDS011;65834;52.364;9.754;2024-02-16T07:27:39;5.03;;;1.75;;
76863;SDS011;65834;52.364;9.754;2024-02-16T07:30:09;6.47;;;1.98;;
76863;SDS011;65834;52.364;9.754;2024-02-16T07:32:48;7.25;;;2.00;;
76863;SDS011;65834;52.364;9.754;2024-02-16T07:35:19;5.05;;;1.70;;
76863;SDS011;65834;52.364;9.754;2024-02-16T07:37:50;5.85;;;1.80;;
76863;SDS011;65834;52.364;9.754;2024-02-16T07:40:23;6.18;;;2.00;;
76863;SDS011;65834;52.364;9.754;2024-02-16T07:42:53;6.00;;;2.10;;
76863;SDS011;65834;52.364;9.754;2024-02-16T07:45:22;6.85;;;2.47;;
76863;SDS011;65834;52.364;9.754;2024-02-16T07:47:52;5.18;;;2.13;;
76863;SDS011;65834;52.364;9.754;2024-02-16T07:50:22;5.03;;;2.33;;
76863;SDS011;65834;52.364;9.754;2024-02-16T07:52:52;6.82;;;2.15;;
76863;SDS011;65834;52.364;9.754;2024-02-16T07:55:24;6.68;;;1.80;;
76863;SDS011;65834;52.364;9.754;2024-02-16T07:57:54;4.57;;;1.70;;
76863;SDS011;65834;52.364;9.754;2024-02-16T08:00:24;5.40;;;1.73;;
76863;SDS011;65834;52.364;9.754;2024-02-16T08:02:55;5.43;;;1.80;;
76863;SDS011;65834;52.364;9.754;2024-02-16T08:05:24;6.35;;;2.33;;
76863;SDS011;65834;52.364;9.754;2024-02-16T08:07:55;6.65;;;2.60;;
76863;SDS011;65834;52.364;9.754;2024-02-16T08:10:27;5.18;;;1.70;;
76863;SDS011;65834;52.364;9.754;2024-02-16T08:12:56;6.65;;;1.98;;
76863;SDS011;65834;52.364;9.754;2024-02-16T08:15:26;7.32;;;2.20;;
76863;SDS011;65834;52.364;9.754;2024-02-16T08:17:56;7.38;;;2.17;;
76863;SDS011;65834;52.364;9.754;2024-02-16T08:20:26;5.75;;;1.70;;
76863;SDS011;65834;52.364;9.754;2024-02-16T08:22:55;5.80;;;2.33;;
76863;SDS011;65834;52.364;9.754;2024-02-16T08:25:28;5.45;;;2.30;;
76863;SDS011;65834;52.364;9.754;2024-02-16T08:27:59;5.47;;;1.80;;
76863;SDS011;65834;52.364;9.754;2024-02-16T08:30:31;6.30;;;2.00;;
76863;SDS011;65834;52.364;9.754;2024-02-16T08:33:02;8.70;;;2.53;;
76863;SDS011;65834;52.364;9.754;2024-02-16T08:35:32;4.55;;;1.85;;
76863;SDS011;65834;52.364;9.754;2024-02-16T08:38:02;5.75;;;1.83;;
76863;SDS011;65834;52.364;9.754;2024-02-16T08:40:39;5.15;;;2.10;;
76863;SDS011;65834;52.364;9.754;2024-02-16T08:43:09;9.20;;;2.22;;
76863;SDS011;65834;52.364;9.754;2024-02-16T08:45:38;5.05;;;1.88;;
76863;SDS011;65834;52.364;9.754;2024-02-16T08:48:08;6.47;;;2.00;;
76863;SDS011;65834;52.364;9.754;2024-02-16T08:50:38;4.07;;;1.92;;
76863;SDS011;65834;52.364;9.754;2024-02-16T08:53:07;5.82;;;2.00;;
76863;SDS011;65834;52.364;9.754;2024-02-16T08:55:40;5.63;;;1.88;;
76863;SDS011;65834;52.364;9.754;2024-02-16T08:58:09;6.28;;;2.00;;
76863;SDS011;65834;52.364;9.754;2024-02-16T09:00:39;8.60;;;2.00;;
76863;SDS011;65834;52.364;9.754;2024-02-16T09:03:08;5.90;;;2.03;;
76863;SDS011;65834;52.364;9.754;2024-02-16T09:05:38;6.88;;;2.15;;
76863;SDS011;65834;52.364;9.754;2024-02-16T09:08:08;8.68;;;2.00;;
76863;SDS011;65834;52.364;9.754;2024-02-16T09:10:40;6.97;;;1.95;;
76863;SDS011;65834;52.364;9.754;2024-02-16T09:13:10;6.80;;;1.80;;
76863;SDS011;65834;52.364;9.754;2024-02-16T09:15:40;6.75;;;2.13;;
76863;SDS011;65834;52.364;9.754;2024-02-16T09:18:09;6.22;;;2.03;;
76863;SDS011;65834;52.364;9.754;2024-02-16T09:20:39;6.72;;;2.33;;
76863;SDS011;65834;52.364;9.754;2024-02-16T09:23:08;6.65;;;2.05;;
76863;SDS011;65834;52.364;9.754;2024-02-16T09:25:41;5.85;;;2.08;;
76863;SDS011;65834;52.364;9.754;2024-02-16T09:28:12;4.50;;;1.60;;
76863;SDS011;65834;52.364;9.754;2024-02-16T09:30:54;5.90;;;2.40;;
76863;SDS011;65834;52.364;9.754;2024-02-16T09:33:24;3.97;;;2.00;;
76863;SDS011;65834;52.364;9.754;2024-02-16T09:35:54;5.75;;;2.00;;
76863;SDS011;65834;52.364;9.754;2024-02-16T09:38:23;8.40;;;2.58;;
76863;SDS011;65834;52.364;9.754;2024-02-16T09:40:55;4.70;;;1.83;;
76863;SDS011;65834;52.364;9.754;2024-02-16T09:43:28;3.67;;;1.65;;
76863;SDS011;65834;52.364;9.754;2024-02-16T09:45:59;2.95;;;1.80;;
76863;SDS011;65834;52.364;9.754;2024-02-16T09:48:29;7.78;;;2.10;;
76863;SDS011;65834;52.364;9.754;2024-02-16T09:50:59;5.97;;;2.10;;
76863;SDS011;65834;52.364;9.754;2024-02-16T09:53:29;6.15;;;1.80;;
76863;SDS011;65834;52.364;9.754;2024-02-16T09:56:02;6.68;;;2.08;;
76863;SDS011;65834;52.364;9.754;2024-02-16T09:58:35;7.18;;;1.73;;
76863;SDS011;65834;52.364;9.754;2024-02-16T10:01:04;5.60;;;2.00;;
76863;SDS011;65834;52.364;9.754;2024-02-16T10:03:34;7.10;;;1.92;;
76863;SDS011;65834;52.364;9.754;2024-02-16T10:06:04;4.97;;;1.75;;
76863;SDS011;65834;52.364;9.754;2024-02-16T10:08:46;5.25;;;1.77;;
76863;SDS011;65834;52.364;9.754;2024-02-16T10:11:20;6.85;;;2.20;;
76863;SDS011;65834;52.364;9.754;2024-02-16T10:13:54;5.55;;;2.00;;
76863;SDS011;65834;52.364;9.754;2024-02-16T10:16:26;4.55;;;1.80;;
76863;SDS011;65834;52.364;9.754;2024-02-16T10:18:56;4.75;;;2.05;;
76863;SDS011;65834;52.364;9.754;2024-02-16T10:21:33;5.00;;;1.67;;
76863;SDS011;65834;52.364;9.754;2024-02-16T10:24:04;4.60;;;1.60;;
76863;SDS011;65834;52.364;9.754;2024-02-16T10:26:38;6.80;;;1.90;;
76863;SDS011;65834;52.364;9.754;2024-02-16T10:29:08;7.72;;;2.05;;
76863;SDS011;65834;52.364;9.754;2024-02-16T10:31:40;6.80;;;1.88;;
76863;SDS011;65834;52.364;9.754;2024-02-16T10:34:09;6.90;;;2.38;;
76863;SDS011;65834;52.364;9.754;2024-02-16T10:36:40;4.28;;;1.73;;
76863;SDS011;65834;52.364;9.754;2024-02-16T10:39:10;6.40;;;2.30;;
76863;SDS011;65834;52.364;9.754;2024-02-16T10:41:43;8.48;;;2.10;;
76863;SDS011;65834;52.364;9.754;2024-02-16T10:44:13;8.35;;;1.95;;
76863;SDS011;65834;52.364;9.754;2024-02-16T10:46:43;5.95;;;1.85;;
76863;SDS011;65834;52.364;9.754;2024-02-16T10:49:13;7.68;;;2.13;;
76863;SDS011;65834;52.364;9.754;2024-02-16T10:51:44;5.68;;;2.10;;
76863;SDS011;65834;52.364;9.754;2024-02-16T10:54:19;10.10;;;2.53;;
76863;SDS011;65834;52.364;9.754;2024-02-16T10:56:55;6.25;;;2.40;;
76863;SDS011;65834;52.364;9.754;2024-02-16T10:59:25;8.65;;;2.20;;
76863;SDS011;65834;52.364;9.754;2024-02-16T11:01:59;7.43;;;2.08;;
76863;SDS011;65834;52.364;9.754;2024-02-16T11:04:35;6.38;;;2.17;;
76863;SDS011;65834;52.364;9.754;2024-02-16T11:07:10;10.48;;;2.53;;
76863;SDS011;65834;52.364;9.754;2024-02-16T11:09:40;7.40;;;2.20;;
76863;SDS011;65834;52.364;9.754;2024-02-16T11:12:14;7.70;;;2.50;;
76863;SDS011;65834;52.364;9.754;2024-02-16T11:14:45;6.68;;;2.28;;
76863;SDS011;65834;52.364;9.754;2024-02-16T11:17:20;7.75;;;3.03;;
76863;SDS011;65834;52.364;9.754;2024-02-16T11:19:50;9.30;;;2.47;;
76863;SDS011;65834;52.364;9.754;2024-02-16T11:22:26;5.55;;;2.30;;
76863;SDS011;65834;52.364;9.754;2024-02-16T11:24:58;8.20;;;2.35;;
76863;SDS011;65834;52.364;9.754;2024-02-16T11:27:32;8.32;;;2.20;;
76863;SDS011;65834;52.364;9.754;2024-02-16T11:30:04;9.32;;;2.85;;
76863;SDS011;65834;52.364;9.754;2024-02-16T11:32:35;8.10;;;2.33;;
76863;SDS011;65834;52.364;9.754;2024-02-16T11:35:05;7.47;;;2.40;;
76863;SDS011;65834;52.364;9.754;2024-02-16T11:37:35;5.97;;;2.20;;
76863;SDS011;65834;52.364;9.754;2024-02-16T11:40:06;6.60;;;2.20;;
76863;SDS011;65834;52.364;9.754;2024-02-16T11:42:39;5.25;;;2.20;;
76863;SDS011;65834;52.364;9.754;2024-02-16T11:45:10;4.65;;;1.60;;
76863;SDS011;65834;52.364;9.754;2024-02-16T11:47:42;7.13;;;2.35;;
76863;SDS011;65834;52.364;9.754;2024-02-16T11:50:12;7.13;;;2.05;;
76863;SDS011;65834;52.364;9.754;2024-02-16T11:52:43;4.68;;;1.80;;
76863;SDS011;65834;52.364;9.754;2024-02-16T11:55:13;7.18;;;2.00;;
76863;SDS011;65834;52.364;9.754;2024-02-16T11:57:45;8.15;;;2.28;;
76863;SDS011;65834;52.364;9.754;2024-02-16T12:00:17;8.15;;;2.70;;
76863;SDS011;65834;52.364;9.754;2024-02-16T12:02:47;7.65;;;2.55;;
76863;SDS011;65834;52.364;9.754;2024-02-16T12:05:16;8.63;;;2.28;;
76863;SDS011;65834;52.364;9.754;2024-02-16T12:07:49;8.57;;;2.80;;
76863;SDS011;65834;52.364;9.754;2024-02-16T12:10:18;7.22;;;2.30;;
76863;SDS011;65834;52.364;9.754;2024-02-16T12:12:51;8.52;;;2.20;;
76863;SDS011;65834;52.364;9.754;2024-02-16T12:15:24;7.10;;;2.03;;
76863;SDS011;65834;52.364;9.754;2024-02-16T12:17:58;5.68;;;2.05;;
76863;SDS011;65834;52.364;9.754;2024-02-16T12:20:29;8.60;;;2.40;;
76863;SDS011;65834;52.364;9.754;2024-02-16T12:23:10;8.10;;;2.65;;
76863;SDS011;65834;52.364;9.754;2024-02-16T12:25:40;7.82;;;2.30;;
76863;SDS011;65834;52.364;9.754;2024-02-16T12:28:12;8.27;;;2.38;;
76863;SDS011;65834;52.364;9.754;2024-02-16T12:30:42;6.70;;;2.47;;
76863;SDS011;65834;52.364;9.754;2024-02-16T12:33:12;7.25;;;2.08;;
76863;SDS011;65834;52.364;9.754;2024-02-16T12:35:41;6.80;;;2.42;;
76863;SDS011;65834;52.364;9.754;2024-02-16T12:38:11;7.97;;;2.35;;
76863;SDS011;65834;52.364;9.754;2024-02-16T12:40:43;5.72;;;1.83;;
76863;SDS011;65834;52.364;9.754;2024-02-16T12:43:15;7.63;;;2.78;;
76863;SDS011;65834;52.364;9.754;2024-02-16T12:45:46;6.38;;;2.00;;
76863;SDS011;65834;52.364;9.754;2024-02-16T12:48:16;9.90;;;2.72;;
76863;SDS011;65834;52.364;9.754;2024-02-16T12:50:47;7.53;;;2.47;;
76863;SDS011;65834;52.364;9.754;2024-02-16T12:53:17;7.65;;;2.20;;
76863;SDS011;65834;52.364;9.754;2024-02-16T12:55:51;8.82;;;2.60;;
76863;SDS011;65834;52.364;9.754;2024-02-16T12:58:23;8.32;;;2.38;;
76863;SDS011;65834;52.364;9.754;2024-02-16T13:00:54;5.57;;;1.98;;
76863;SDS011;65834;52.364;9.754;2024-02-16T13:03:34;8.00;;;2.30;;
76863;SDS011;65834;52.364;9.754;2024-02-16T13:06:05;4.20;;;2.03;;
76863;SDS011;65834;52.364;9.754;2024-02-16T13:08:35;7.53;;;2.20;;
76863;SDS011;65834;52.364;9.754;2024-02-16T13:11:05;7.95;;;2.60;;
76863;SDS011;65834;52.364;9.754;2024-02-16T13:13:37;8.73;;;2.20;;
76863;SDS011;65834;52.364;9.754;2024-02-16T13:16:07;7.38;;;2.35;;
76863;SDS011;65834;52.364;9.754;2024-02-16T13:18:37;8.18;;;2.35;;
76863;SDS011;65834;52.364;9.754;2024-02-16T13:21:07;7.15;;;2.42;;
76863;SDS011;65834;52.364;9.754;2024-02-16T13:23:37;7.25;;;2.50;;
76863;SDS011;65834;52.364;9.754;2024-02-16T13:26:07;8.88;;;2.63;;
76863;SDS011;65834;52.364;9.754;2024-02-16T13:28:39;6.47;;;2.30;;
76863;SDS011;65834;52.364;9.754;2024-02-16T13:31:09;8.45;;;2.83;;
76863;SDS011;65834;52.364;9.754;2024-02-16T13:33:38;9.68;;;3.47;;
76863;SDS011;65834;52.364;9.754;2024-02-16T13:36:08;7.43;;;2.80;;
76863;SDS011;65834;52.364;9.754;2024-02-16T13:38:38;10.10;;;2.67;;
76863;SDS011;65834;52.364;9.754;2024-02-16T13:41:07;8.43;;;2.53;;
76863;SDS011;65834;52.364;9.754;2024-02-16T13:43:40;8.98;;;2.85;;
76863;SDS011;65834;52.364;9.754;2024-02-16T13:46:09;8.23;;;2.60;;
76863;SDS011;65834;52.364;9.754;2024-02-16T13:48:39;9.40;;;2.75;;
76863;SDS011;65834;52.364;9.754;2024-02-16T13:51:09;9.38;;;2.70;;
76863;SDS011;65834;52.364;9.754;2024-02-16T13:53:39;9.30;;;2.88;;
76863;SDS011;65834;52.364;9.754;2024-02-16T13:56:08;9.57;;;3.08;;
76863;SDS011;65834;52.364;9.754;2024-02-16T13:58:41;8.80;;;2.90;;
76863;SDS011;65834;52.364;9.754;2024-02-16T14:01:10;10.73;;;3.13;;
76863;SDS011;65834;52.364;9.754;2024-02-16T14:03:40;6.20;;;2.95;;
76863;SDS011;65834;52.364;9.754;2024-02-16T14:06:10;7.43;;;2.72;;
76863;SDS011;65834;52.364;9.754;2024-02-16T14:08:39;7.57;;;2.67;;
76863;SDS011;65834;52.364;9.754;2024-02-16T14:11:09;8.15;;;3.00;;
76863;SDS011;65834;52.364;9.754;2024-02-16T14:13:41;8.35;;;3.08;;
76863;SDS011;65834;52.364;9.754;2024-02-16T14:16:11;7.95;;;2.80;;
76863;SDS011;65834;52.364;9.754;2024-02-16T14:18:40;10.15;;;3.10;;
76863;SDS011;65834;52.364;9.754;2024-02-16T14:21:10;9.70;;;3.53;;
76863;SDS011;65834;52.364;9.754;2024-02-16T14:23:40;10.57;;;3.10;;
76863;SDS011;65834;52.364;9.754;2024-02-16T14:26:10;9.38;;;3.40;;
76863;SDS011;65834;52.364;9.754;2024-02-16T14:28:42;9.77;;;3.42;;
76863;SDS011;65834;52.364;9.754;2024-02-16T14:31:11;9.55;;;3.38;;
76863;SDS011;65834;52.364;9.754;2024-02-16T14:33:43;12.43;;;3.35;;
76863;SDS011;65834;52.364;9.754;2024-02-16T14:36:12;11.05;;;3.35;;
76863;SDS011;65834;52.364;9.754;2024-02-16T14:38:42;8.80;;;3.13;;
76863;SDS011;65834;52.364;9.754;2024-02-16T14:41:12;12.20;;;3.30;;
76863;SDS011;65834;52.364;9.754;2024-02-16T14:43:45;8.10;;;3.25;;
76863;SDS011;65834;52.364;9.754;2024-02-16T14:46:15;11.57;;;3.50;;
76863;SDS011;65834;52.364;9.754;2024-02-16T14:48:46;8.63;;;3.20;;
76863;SDS011;65834;52.364;9.754;2024-02-16T14:51:17;10.07;;;3.30;;
76863;SDS011;65834;52.364;9.754;2024-02-16T14:53:46;10.93;;;4.22;;
76863;SDS011;65834;52.364;9.754;2024-02-16T14:56:16;13.43;;;3.70;;
76863;SDS011;65834;52.364;9.754;2024-02-16T14:58:51;9.45;;;3.45;;
76863;SDS011;65834;52.364;9.754;2024-02-16T15:01:20;11.30;;;4.25;;
76863;SDS011;65834;52.364;9.754;2024-02-16T15:03:55;11.70;;;3.85;;
76863;SDS011;65834;52.364;9.754;2024-02-16T15:06:27;10.88;;;3.75;;
76863;SDS011;65834;52.364;9.754;2024-02-16T15:08:59;11.13;;;3.90;;
76863;SDS011;65834;52.364;9.754;2024-02-16T15:11:42;10.27;;;4.03;;
76863;SDS011;65834;52.364;9.754;2024-02-16T15:14:14;10.38;;;4.13;;